Buoy 46770

sailwx.info

Track history (hours):
 
Tides and Currents Weather Stations Pressure Air Temp Water Temp Dewpoint Dewpoint Depression Visibility Wind Speed Wind Dir Waves Ship Positions

Drifting buoy 46770

Last reported at 2017-May-23 14:00 UTC. Time now 2017-May-23 14:52 UTC.
Position N 35°43' W 126°58'.

Barometer 1016.3 mb
Water temperature 14.8 ° C

Date/timePositionNaut miles runAvg speedWind from/ knotsBaromVisibWave heightAir tempDewpointWater temp
2017-May-23 14:00N 35°43' W 126°58'1 0.6 1016.3 14.8
2017-May-23 13:00N 35°43' W 126°58'0 0.5 1016.1 14.8
2017-May-23 12:00N 35°43' W 126°59'2 2.4 1016.2 14.8
2017-May-23 11:00N 35°46' W 126°59'0 0.0 1016.4 14.8
2017-May-23 07:00N 35°46' W 126°59'1 1.1 1018.2 14.8
2017-May-23 06:00N 35°46' W 126°58'0 0.0 1018.3 14.8
2017-May-23 05:00N 35°46' W 126°58'1 0.6 1018.2 14.8
2017-May-23 04:00N 35°47' W 126°58'0 0.0 1018.0 14.7
2017-May-23 03:00N 35°47' W 126°58'0 0.5 1017.9 14.7
2017-May-23 02:00N 35°47' W 126°59'1 1.3 1018.0 14.7
2017-May-23 01:00N 35°48' W 126°59'0 0.2 1018.5 14.7
2017-May-22 23:00N 35°48' W 127°00'1 0.3 1019.1 14.7
2017-May-22 21:00N 35°49' W 127°00'1 0.4 1019.5 14.7
2017-May-22 19:00N 35°49' W 127°01'1 0.6 1019.7 14.7
2017-May-22 18:00N 35°50' W 127°01'0 0.5 1019.6 14.7
2017-May-22 17:00N 35°50' W 127°00'1 0.8 1019.7 14.7
2017-May-22 16:00N 35°50' W 126°59'1 0.8 1019.7 14.7
2017-May-22 15:00N 35°51' W 127°00'1 1.3 1019.7 14.7
2017-May-22 14:00N 35°52' W 126°59'0 0.0 1019.2 14.7
2017-May-22 13:00N 35°52' W 126°59'3 3.3 1018.8 14.7
2017-May-22 12:00N 35°55' W 127°01'0 0.0 1018.8 14.7
2017-May-22 10:00N 35°55' W 127°01'0 0.0 1019.6 14.7
2017-May-22 09:00N 35°55' W 127°01'0 0.0 1019.8 14.6
2017-May-22 06:00N 35°55' W 127°01'1 0.8 1020.4 14.6
2017-May-22 05:00N 35°56' W 127°02'1 0.8 1020.2 14.6
2017-May-22 04:00N 35°56' W 127°01'0 0.5 1019.9 14.6
2017-May-22 03:00N 35°56' W 127°01'1 0.6 1019.7 14.6
2017-May-22 02:00N 35°57' W 127°01'0 0.0 1019.5 14.7
2017-May-22 01:00N 35°57' W 127°01'1 0.6 1019.9 14.7
2017-May-22 00:00N 35°58' W 127°01'0 0.0 1019.8 14.7
2017-May-21 23:00N 35°58' W 127°01'1 0.8 1020.3 14.7
2017-May-21 22:00N 35°58' W 127°00'0 0.0 1020.3 14.6
2017-May-21 21:00N 35°58' W 127°00'2 1.2 1020.3 14.6
2017-May-21 19:00N 36°01' W 126°59'0 0.0 1020.0 14.6
2017-May-21 18:00N 36°01' W 126°59'2 1.8 1019.9 14.6
2017-May-21 17:00N 36°02' W 126°59'0 0.0 1019.9 14.6
2017-May-21 16:00N 36°02' W 126°59'1 0.6 1019.4 14.5
2017-May-21 15:00N 36°02' W 126°59'1 1.2 1019.1 14.5
2017-May-21 14:00N 36°03' W 126°59'1 0.6 1018.7 14.5
2017-May-21 13:00N 36°04' W 126°59'1 1.1 1018.2 14.5
2017-May-21 12:00N 36°04' W 127°01'1 0.8 1018.2 14.6
2017-May-21 11:00N 36°05' W 127°00'1 0.2 1018.4 14.6
2017-May-21 06:00N 36°06' W 127°00'0 0.0 1019.0 14.7
2017-May-21 05:00N 36°06' W 127°00'0 0.5 1018.9 14.7
2017-May-21 04:00N 36°06' W 126°59'2 1.5 1018.3 14.7
2017-May-21 03:00N 36°07' W 126°58'0 0.0 1018.1 14.8
2017-May-21 02:00N 36°07' W 126°58'1 1.3 1018.1 14.8
2017-May-21 01:00N 36°08' W 126°58'1 0.4 1018.2 14.8
2017-May-20 23:00N 36°09' W 126°57'0 0.0 1019.1 14.7
2017-May-20 22:00N 36°09' W 126°57'0 0.5 1019.3 14.7
2017-May-20 21:00N 36°09' W 126°58'2 0.6 1019.7 14.7
2017-May-20 18:00N 36°11' W 126°57'1 0.8 1019.8 14.6
2017-May-20 17:00N 36°11' W 126°56'0 0.0 1019.8 14.6
2017-May-20 16:00N 36°11' W 126°56'1 0.6 1019.8 14.6
2017-May-20 15:00N 36°12' W 126°56'0 0.5 1019.6 14.5
2017-May-20 14:00N 36°12' W 126°57'1 0.8 1019.3 14.5
2017-May-20 13:00N 36°13' W 126°56'0 0.5 1019.2 14.5
2017-May-20 12:00N 36°13' W 126°56'0 0.0 1019.1 14.6
2017-May-20 11:00N 36°13' W 126°56'0 0.0 1019.2 14.6
2017-May-20 10:00N 36°13' W 126°56'3 0.8 1019.4 14.6
2017-May-20 06:00N 36°16' W 126°54'1 0.6 1020.7 14.6
2017-May-20 04:00N 36°17' W 126°53'1 1.3 1020.0 14.6
2017-May-20 03:00N 36°18' W 126°54'1 0.6 1019.8 14.6
2017-May-20 02:00N 36°17' W 126°54'1 0.8 1019.8 14.6
2017-May-20 01:00N 36°18' W 126°55'0 0.0 1020.1 14.7
2017-May-20 00:00N 36°18' W 126°55'0 0.5 1020.0 14.7
2017-May-19 23:00N 36°18' W 126°54'1 1.3 1020.4 14.7
2017-May-19 22:00N 36°19' W 126°53'0 0.0 1020.8 14.7
2017-May-19 21:00N 36°19' W 126°53'1 0.4 1021.0 14.7
2017-May-19 19:00N 36°20' W 126°54'0 0.0 1021.1 14.7
2017-May-19 18:00N 36°20' W 126°54'1 1.3 1020.9 14.7
2017-May-19 17:00N 36°21' W 126°53'1 1.3 1020.8 14.6
2017-May-19 16:00N 36°22' W 126°53'0 0.0 1020.7 14.6
2017-May-19 15:00N 36°22' W 126°53'1 1.0 1020.4 14.5
2017-May-19 14:00N 36°22' W 126°54'1 0.4 1020.2 14.5
2017-May-19 12:00N 36°23' W 126°53'0 0.5 1019.8 14.5
2017-May-19 11:00N 36°23' W 126°53'1 1.2 1019.9 14.5
2017-May-19 10:00N 36°24' W 126°53'1 0.2 1020.3 14.5
2017-May-19 06:00N 36°25' W 126°52'1 1.2 1021.3 14.5
2017-May-19 05:00N 36°26' W 126°52'1 0.6 1021.2 14.5
2017-May-19 04:00N 36°26' W 126°52'1 0.8 1021.1 14.6
2017-May-19 03:00N 36°27' W 126°53'1 0.6 1020.9 14.6
2017-May-19 02:00N 36°28' W 126°53'1 0.8 1021.0 14.6
2017-May-19 01:00N 36°28' W 126°53'1 0.8 1021.5 14.6
2017-May-19 00:00N 36°29' W 126°54'0 0.0 1021.6 14.6
2017-May-18 23:00N 36°29' W 126°54'0 0.0 1022.0 14.6
2017-May-18 22:00N 36°29' W 126°54'0 0.1 1022.3 14.6
2017-May-18 18:00N 36°29' W 126°53'1 0.8 1023.0 14.6
2017-May-18 17:00N 36°29' W 126°53'0 0.5 1022.9 14.5
2017-May-18 16:00N 36°29' W 126°52'1 1.3 1022.5 14.5
2017-May-18 15:00N 36°31' W 126°52'1 0.8 1022.2 14.5
2017-May-18 14:00N 36°31' W 126°51'1 1.3 1021.7 14.5
2017-May-18 13:00N 36°32' W 126°50'1 0.8 1021.3 14.5
2017-May-18 12:00N 36°33' W 126°51'1 1.1 1021.4 14.5
2017-May-18 11:00N 36°34' W 126°50'0 0.0 1021.3 14.5
2017-May-18 07:00N 36°34' W 126°50'1 1.0 1022.4 14.5
2017-May-18 06:00N 36°34' W 126°51'1 1.1 1022.8 14.6
2017-May-18 05:00N 36°34' W 126°50'0 0.0 1022.7 14.6
2017-May-18 04:00N 36°34' W 126°50'1 0.6 1022.5 14.6
2017-May-18 03:00N 36°35' W 126°50'1 0.6 1022.3 14.6
2017-May-18 02:00N 36°35' W 126°50'1 0.6 1022.1 14.6
2017-May-18 01:00N 36°36' W 126°50'0 0.5 1022.8 14.6
2017-May-18 00:00N 36°36' W 126°49'1 0.4 1023.0 14.7
2017-May-17 22:00N 36°37' W 126°50'2 0.8 1023.7 14.7
2017-May-17 19:00N 36°38' W 126°52'0 0.5 1024.4 14.6
2017-May-17 18:00N 36°38' W 126°52'0 0.0 1024.3 14.5
2017-May-17 17:00N 36°38' W 126°52'1 0.8 1023.9 14.5
2017-May-17 16:00N 36°39' W 126°53'0 0.0 1024.0 14.5
2017-May-17 15:00N 36°39' W 126°53'0 0.0 1023.6 14.5
2017-May-17 14:00N 36°39' W 126°53'2 1.6 1023.0 14.5
2017-May-17 13:00N 36°40' W 126°55'0 0.0 1022.6 14.5
2017-May-17 12:00N 36°40' W 126°55'2 1.6 1022.6 14.5
2017-May-17 11:00N 36°40' W 126°56'2 1.6 1022.6 14.5
2017-May-17 10:00N 36°40' W 126°55'2 0.5 1022.9 14.5
2017-May-17 06:00N 36°40' W 126°57'0 0.0 1023.6 14.4
2017-May-17 05:00N 36°40' W 126°57'1 0.8 1023.4 14.3
2017-May-17 04:00N 36°40' W 126°58'0 0.0 1023.0 14.3
2017-May-17 03:00N 36°40' W 126°58'1 0.8 1022.9 14.4
2017-May-17 02:00N 36°41' W 126°57'1 0.8 1022.6 14.4
2017-May-17 01:00N 36°41' W 126°58'0 0.0 1022.8 14.4
2017-May-17 00:00N 36°41' W 126°58'1 0.8 1022.8 14.4
2017-May-16 23:00N 36°42' W 126°58'2 2.5 1023.0 14.4
2017-May-16 22:00N 36°43' W 127°01'0 0.5 1022.9 14.4
2017-May-16 21:00N 36°43' W 127°02'0 0.0 1023.1 14.4
2017-May-16 20:00N 36°43' W 127°02'0 0.5 1023.1 14.4
2017-May-16 19:00N 36°43' W 127°02'1 1.0 1022.9 14.4
2017-May-16 18:00N 36°43' W 127°04'0 0.1 1022.1 14.4
2017-May-16 14:00N 36°43' W 127°04'1 1.2 1020.9 14.3
2017-May-16 13:00N 36°44' W 127°04'0 0.5 1020.4 14.3
2017-May-16 12:00N 36°44' W 127°05'0 0.5 1020.5 14.3
2017-May-16 11:00N 36°44' W 127°04'0 0.0 1020.7 14.3
2017-May-16 10:00N 36°44' W 127°04'4 1.1 1020.8 14.2
2017-May-16 06:00N 36°46' W 127°09'0 0.0 1021.7 13.9
2017-May-16 05:00N 36°46' W 127°09'1 0.6 1021.4 13.9
2017-May-16 04:00N 36°46' W 127°09'1 1.0 1021.2 13.9
2017-May-16 03:00N 36°46' W 127°10'0 0.0 1021.0 13.9
2017-May-16 02:00N 36°46' W 127°10'1 0.8 1020.9 14.0
2017-May-16 01:00N 36°47' W 127°11'2 1.6 1021.2 14.0
2017-May-16 00:00N 36°47' W 127°13'0 0.0 1021.2 14.0
2017-May-15 23:00N 36°47' W 127°13'1 0.8 1021.3 14.0
2017-May-15 22:00N 36°48' W 127°13'1 1.1 1021.5 14.0
2017-May-15 21:00N 36°49' W 127°14'0 0.0 1021.6 13.9
2017-May-15 20:00N 36°49' W 127°14'0 0.0 1021.7 14.0
2017-May-15 19:00N 36°49' W 127°14'1 1.0 1021.6 14.0
2017-May-15 18:00N 36°49' W 127°16'1 0.6 1021.4 14.0
2017-May-15 17:00N 36°49' W 127°16'1 1.1 1021.4 13.9
2017-May-15 16:00N 36°50' W 127°17'0 0.0 1021.1 13.9
2017-May-15 15:00N 36°50' W 127°17'1 0.6 1020.8 13.8
2017-May-15 14:00N 36°50' W 127°17'0 0.0 1020.6 13.8
2017-May-15 13:00N 36°50' W 127°17'1 0.8 1020.6 13.8
2017-May-15 12:00N 36°51' W 127°17'2 2.0 1020.8 13.8
2017-May-15 11:00N 36°53' W 127°19'0 0.0 1020.7 13.9
2017-May-15 06:00N 36°53' W 127°19'1 0.6 1022.0 13.9
2017-May-15 05:00N 36°53' W 127°19'1 0.8 1021.7 13.9
2017-May-15 04:00N 36°54' W 127°19'1 1.0 1021.7 13.9
2017-May-15 03:00N 36°54' W 127°20'2 1.5 1021.2 14.0
2017-May-15 02:00N 36°55' W 127°19'1 0.8 1021.2 14.0
2017-May-15 01:00N 36°56' W 127°20'0 0.0 1021.0 14.0
2017-May-15 00:00N 36°56' W 127°20'0 0.0 1021.1 14.0
2017-May-14 23:00N 36°56' W 127°20'0 0.5 1021.4 14.0
2017-May-14 22:00N 36°56' W 127°20'0 0.0 1021.7 14.0
2017-May-14 21:00N 36°56' W 127°20'1 0.3 1021.8 14.0
2017-May-14 19:00N 36°56' W 127°20'1 0.8 1021.6 13.8
2017-May-14 18:00N 36°57' W 127°21'0 0.0 1021.3 13.8
2017-May-14 17:00N 36°57' W 127°21'1 0.8 1021.3 13.8
2017-May-14 16:00N 36°58' W 127°22'0 0.0 1021.0 13.8
2017-May-14 15:00N 36°58' W 127°22'1 0.8 1020.6 13.8
2017-May-14 14:00N 36°58' W 127°21'1 1.1 1020.5 13.8
2017-May-14 13:00N 36°59' W 127°22'0 0.5 1020.5 13.8
2017-May-14 12:00N 36°59' W 127°22'2 2.0 1020.6 13.9
2017-May-14 11:00N 37°01' W 127°23'0 0.0 1020.8 14.0
2017-May-14 10:00N 37°01' W 127°23'0 0.0 1021.0 14.0
2017-May-14 06:00N 37°01' W 127°23'0 0.0 1022.7 14.0
2017-May-14 05:00N 37°01' W 127°23'1 1.1 1023.0 14.0
2017-May-14 04:00N 37°01' W 127°24'0 0.0 1023.0 14.1
2017-May-14 03:00N 37°01' W 127°24'1 1.0 1023.1 14.1
2017-May-14 02:00N 37°01' W 127°25'0 0.0 1023.2 14.1
2017-May-14 01:00N 37°01' W 127°25'0 0.5 1023.5 14.1
2017-May-14 00:00N 37°01' W 127°26'0 0.0 1023.9 14.1
2017-May-13 23:00N 37°01' W 127°26'1 0.5 1024.6 14.1
2017-May-13 21:00N 37°01' W 127°25'2 0.5 1025.4 14.0
2017-May-13 18:00N 37°02' W 127°23'1 0.6 1025.7 14.0
2017-May-13 17:00N 37°03' W 127°23'1 0.8 1025.8 14.0
2017-May-13 16:00N 37°04' W 127°24'0 0.5 1025.4 14.1
2017-May-13 15:00N 37°04' W 127°25'1 1.3 1025.2 14.1
2017-May-13 14:00N 37°05' W 127°25'   1024.9 14.1
Track history (hours):
 
Tides and Currents Weather Stations Pressure Air Temp Water Temp Dewpoint Dewpoint Depression Visibility Wind Speed Wind Dir Waves Ship Positions

Drifting buoy 46770

Last reported at 2017-May-23 14:00 UTC. Time now 2017-May-23 14:52 UTC.
Position N 35°43' W 126°58'.

Barometer 1016.3 mb
Water temperature 14.8 ° C

Date/timePositionNaut miles runAvg speedWind from/ knotsBaromVisibWave heightAir tempDewpointWater temp
2017-May-23 14:00N 35°43' W 126°58'1 0.6 1016.3 14.8
2017-May-23 13:00N 35°43' W 126°58'0 0.5 1016.1 14.8
2017-May-23 12:00N 35°43' W 126°59'2 2.4 1016.2 14.8
2017-May-23 11:00N 35°46' W 126°59'0 0.0 1016.4 14.8
2017-May-23 07:00N 35°46' W 126°59'1 1.1 1018.2 14.8
2017-May-23 06:00N 35°46' W 126°58'0 0.0 1018.3 14.8
2017-May-23 05:00N 35°46' W 126°58'1 0.6 1018.2 14.8
2017-May-23 04:00N 35°47' W 126°58'0 0.0 1018.0 14.7
2017-May-23 03:00N 35°47' W 126°58'0 0.5 1017.9 14.7
2017-May-23 02:00N 35°47' W 126°59'1 1.3 1018.0 14.7
2017-May-23 01:00N 35°48' W 126°59'0 0.2 1018.5 14.7
2017-May-22 23:00N 35°48' W 127°00'1 0.3 1019.1 14.7
2017-May-22 21:00N 35°49' W 127°00'1 0.4 1019.5 14.7
2017-May-22 19:00N 35°49' W 127°01'1 0.6 1019.7 14.7
2017-May-22 18:00N 35°50' W 127°01'0 0.5 1019.6 14.7
2017-May-22 17:00N 35°50' W 127°00'1 0.8 1019.7 14.7
2017-May-22 16:00N 35°50' W 126°59'1 0.8 1019.7 14.7
2017-May-22 15:00N 35°51' W 127°00'1 1.3 1019.7 14.7
2017-May-22 14:00N 35°52' W 126°59'0 0.0 1019.2 14.7
2017-May-22 13:00N 35°52' W 126°59'3 3.3 1018.8 14.7
2017-May-22 12:00N 35°55' W 127°01'0 0.0 1018.8 14.7
2017-May-22 10:00N 35°55' W 127°01'0 0.0 1019.6 14.7
2017-May-22 09:00N 35°55' W 127°01'0 0.0 1019.8 14.6
2017-May-22 06:00N 35°55' W 127°01'1 0.8 1020.4 14.6
2017-May-22 05:00N 35°56' W 127°02'1 0.8 1020.2 14.6
2017-May-22 04:00N 35°56' W 127°01'0 0.5 1019.9 14.6
2017-May-22 03:00N 35°56' W 127°01'1 0.6 1019.7 14.6
2017-May-22 02:00N 35°57' W 127°01'0 0.0 1019.5 14.7
2017-May-22 01:00N 35°57' W 127°01'1 0.6 1019.9 14.7
2017-May-22 00:00N 35°58' W 127°01'0 0.0 1019.8 14.7
2017-May-21 23:00N 35°58' W 127°01'1 0.8 1020.3 14.7
2017-May-21 22:00N 35°58' W 127°00'0 0.0 1020.3 14.6
2017-May-21 21:00N 35°58' W 127°00'2 1.2 1020.3 14.6
2017-May-21 19:00N 36°01' W 126°59'0 0.0 1020.0 14.6
2017-May-21 18:00N 36°01' W 126°59'2 1.8 1019.9 14.6
2017-May-21 17:00N 36°02' W 126°59'0 0.0 1019.9 14.6
2017-May-21 16:00N 36°02' W 126°59'1 0.6 1019.4 14.5
2017-May-21 15:00N 36°02' W 126°59'1 1.2 1019.1 14.5
2017-May-21 14:00N 36°03' W 126°59'1 0.6 1018.7 14.5
2017-May-21 13:00N 36°04' W 126°59'1 1.1 1018.2 14.5
2017-May-21 12:00N 36°04' W 127°01'1 0.8 1018.2 14.6
2017-May-21 11:00N 36°05' W 127°00'1 0.2 1018.4 14.6
2017-May-21 06:00N 36°06' W 127°00'0 0.0 1019.0 14.7
2017-May-21 05:00N 36°06' W 127°00'0 0.5 1018.9 14.7
2017-May-21 04:00N 36°06' W 126°59'2 1.5 1018.3 14.7
2017-May-21 03:00N 36°07' W 126°58'0 0.0 1018.1 14.8
2017-May-21 02:00N 36°07' W 126°58'1 1.3 1018.1 14.8
2017-May-21 01:00N 36°08' W 126°58'1 0.4 1018.2 14.8
2017-May-20 23:00N 36°09' W 126°57'0 0.0 1019.1 14.7
2017-May-20 22:00N 36°09' W 126°57'0 0.5 1019.3 14.7
2017-May-20 21:00N 36°09' W 126°58'2 0.6 1019.7 14.7
2017-May-20 18:00N 36°11' W 126°57'1 0.8 1019.8 14.6
2017-May-20 17:00N 36°11' W 126°56'0 0.0 1019.8 14.6
2017-May-20 16:00N 36°11' W 126°56'1 0.6 1019.8 14.6
2017-May-20 15:00N 36°12' W 126°56'0 0.5 1019.6 14.5
2017-May-20 14:00N 36°12' W 126°57'1 0.8 1019.3 14.5
2017-May-20 13:00N 36°13' W 126°56'0 0.5 1019.2 14.5
2017-May-20 12:00N 36°13' W 126°56'0 0.0 1019.1 14.6
2017-May-20 11:00N 36°13' W 126°56'0 0.0 1019.2 14.6
2017-May-20 10:00N 36°13' W 126°56'3 0.8 1019.4 14.6
2017-May-20 06:00N 36°16' W 126°54'1 0.6 1020.7 14.6
2017-May-20 04:00N 36°17' W 126°53'1 1.3 1020.0 14.6
2017-May-20 03:00N 36°18' W 126°54'1 0.6 1019.8 14.6
2017-May-20 02:00N 36°17' W 126°54'1 0.8 1019.8 14.6
2017-May-20 01:00N 36°18' W 126°55'0 0.0 1020.1 14.7
2017-May-20 00:00N 36°18' W 126°55'0 0.5 1020.0 14.7
2017-May-19 23:00N 36°18' W 126°54'1 1.3 1020.4 14.7
2017-May-19 22:00N 36°19' W 126°53'0 0.0 1020.8 14.7
2017-May-19 21:00N 36°19' W 126°53'1 0.4 1021.0 14.7
2017-May-19 19:00N 36°20' W 126°54'0 0.0 1021.1 14.7
2017-May-19 18:00N 36°20' W 126°54'1 1.3 1020.9 14.7
2017-May-19 17:00N 36°21' W 126°53'1 1.3 1020.8 14.6
2017-May-19 16:00N 36°22' W 126°53'0 0.0 1020.7 14.6
2017-May-19 15:00N 36°22' W 126°53'1 1.0 1020.4 14.5
2017-May-19 14:00N 36°22' W 126°54'1 0.4 1020.2 14.5
2017-May-19 12:00N 36°23' W 126°53'0 0.5 1019.8 14.5
2017-May-19 11:00N 36°23' W 126°53'1 1.2 1019.9 14.5
2017-May-19 10:00N 36°24' W 126°53'1 0.2 1020.3 14.5
2017-May-19 06:00N 36°25' W 126°52'1 1.2 1021.3 14.5
2017-May-19 05:00N 36°26' W 126°52'1 0.6 1021.2 14.5
2017-May-19 04:00N 36°26' W 126°52'1 0.8 1021.1 14.6
2017-May-19 03:00N 36°27' W 126°53'1 0.6 1020.9 14.6
2017-May-19 02:00N 36°28' W 126°53'1 0.8 1021.0 14.6
2017-May-19 01:00N 36°28' W 126°53'1 0.8 1021.5 14.6
2017-May-19 00:00N 36°29' W 126°54'0 0.0 1021.6 14.6
2017-May-18 23:00N 36°29' W 126°54'0 0.0 1022.0 14.6
2017-May-18 22:00N 36°29' W 126°54'0 0.1 1022.3 14.6
2017-May-18 18:00N 36°29' W 126°53'1 0.8 1023.0 14.6
2017-May-18 17:00N 36°29' W 126°53'0 0.5 1022.9 14.5
2017-May-18 16:00N 36°29' W 126°52'1 1.3 1022.5 14.5
2017-May-18 15:00N 36°31' W 126°52'1 0.8 1022.2 14.5
2017-May-18 14:00N 36°31' W 126°51'1 1.3 1021.7 14.5
2017-May-18 13:00N 36°32' W 126°50'1 0.8 1021.3 14.5
2017-May-18 12:00N 36°33' W 126°51'1 1.1 1021.4 14.5
2017-May-18 11:00N 36°34' W 126°50'0 0.0 1021.3 14.5
2017-May-18 07:00N 36°34' W 126°50'1 1.0 1022.4 14.5
2017-May-18 06:00N 36°34' W 126°51'1 1.1 1022.8 14.6
2017-May-18 05:00N 36°34' W 126°50'0 0.0 1022.7 14.6
2017-May-18 04:00N 36°34' W 126°50'1 0.6 1022.5 14.6
2017-May-18 03:00N 36°35' W 126°50'1 0.6 1022.3 14.6
2017-May-18 02:00N 36°35' W 126°50'1 0.6 1022.1 14.6
2017-May-18 01:00N 36°36' W 126°50'0 0.5 1022.8 14.6
2017-May-18 00:00N 36°36' W 126°49'1 0.4 1023.0 14.7
2017-May-17 22:00N 36°37' W 126°50'2 0.8 1023.7 14.7
2017-May-17 19:00N 36°38' W 126°52'0 0.5 1024.4 14.6
2017-May-17 18:00N 36°38' W 126°52'0 0.0 1024.3 14.5
2017-May-17 17:00N 36°38' W 126°52'1 0.8 1023.9 14.5
2017-May-17 16:00N 36°39' W 126°53'0 0.0 1024.0 14.5
2017-May-17 15:00N 36°39' W 126°53'0 0.0 1023.6 14.5
2017-May-17 14:00N 36°39' W 126°53'2 1.6 1023.0 14.5
2017-May-17 13:00N 36°40' W 126°55'0 0.0 1022.6 14.5
2017-May-17 12:00N 36°40' W 126°55'2 1.6 1022.6 14.5
2017-May-17 11:00N 36°40' W 126°56'2 1.6 1022.6 14.5
2017-May-17 10:00N 36°40' W 126°55'2 0.5 1022.9 14.5
2017-May-17 06:00N 36°40' W 126°57'0 0.0 1023.6 14.4
2017-May-17 05:00N 36°40' W 126°57'1 0.8 1023.4 14.3
2017-May-17 04:00N 36°40' W 126°58'0 0.0 1023.0 14.3
2017-May-17 03:00N 36°40' W 126°58'1 0.8 1022.9 14.4
2017-May-17 02:00N 36°41' W 126°57'1 0.8 1022.6 14.4
2017-May-17 01:00N 36°41' W 126°58'0 0.0 1022.8 14.4
2017-May-17 00:00N 36°41' W 126°58'1 0.8 1022.8 14.4
2017-May-16 23:00N 36°42' W 126°58'2 2.5 1023.0 14.4
2017-May-16 22:00N 36°43' W 127°01'0 0.5 1022.9 14.4
2017-May-16 21:00N 36°43' W 127°02'0 0.0 1023.1 14.4
2017-May-16 20:00N 36°43' W 127°02'0 0.5 1023.1 14.4
2017-May-16 19:00N 36°43' W 127°02'1 1.0 1022.9 14.4
2017-May-16 18:00N 36°43' W 127°04'0 0.1 1022.1 14.4
2017-May-16 14:00N 36°43' W 127°04'1 1.2 1020.9 14.3
2017-May-16 13:00N 36°44' W 127°04'0 0.5 1020.4 14.3
2017-May-16 12:00N 36°44' W 127°05'0 0.5 1020.5 14.3
2017-May-16 11:00N 36°44' W 127°04'0 0.0 1020.7 14.3
2017-May-16 10:00N 36°44' W 127°04'4 1.1 1020.8 14.2
2017-May-16 06:00N 36°46' W 127°09'0 0.0 1021.7 13.9
2017-May-16 05:00N 36°46' W 127°09'1 0.6 1021.4 13.9
2017-May-16 04:00N 36°46' W 127°09'1 1.0 1021.2 13.9
2017-May-16 03:00N 36°46' W 127°10'0 0.0 1021.0 13.9
2017-May-16 02:00N 36°46' W 127°10'1 0.8 1020.9 14.0
2017-May-16 01:00N 36°47' W 127°11'2 1.6 1021.2 14.0
2017-May-16 00:00N 36°47' W 127°13'0 0.0 1021.2 14.0
2017-May-15 23:00N 36°47' W 127°13'1 0.8 1021.3 14.0
2017-May-15 22:00N 36°48' W 127°13'1 1.1 1021.5 14.0
2017-May-15 21:00N 36°49' W 127°14'0 0.0 1021.6 13.9
2017-May-15 20:00N 36°49' W 127°14'0 0.0 1021.7 14.0
2017-May-15 19:00N 36°49' W 127°14'1 1.0 1021.6 14.0
2017-May-15 18:00N 36°49' W 127°16'1 0.6 1021.4 14.0
2017-May-15 17:00N 36°49' W 127°16'1 1.1 1021.4 13.9
2017-May-15 16:00N 36°50' W 127°17'0 0.0 1021.1 13.9
2017-May-15 15:00N 36°50' W 127°17'1 0.6 1020.8 13.8
2017-May-15 14:00N 36°50' W 127°17'0 0.0 1020.6 13.8
2017-May-15 13:00N 36°50' W 127°17'1 0.8 1020.6 13.8
2017-May-15 12:00N 36°51' W 127°17'2 2.0 1020.8 13.8
2017-May-15 11:00N 36°53' W 127°19'0 0.0 1020.7 13.9
2017-May-15 06:00N 36°53' W 127°19'1 0.6 1022.0 13.9
2017-May-15 05:00N 36°53' W 127°19'1 0.8 1021.7 13.9
2017-May-15 04:00N 36°54' W 127°19'1 1.0 1021.7 13.9
2017-May-15 03:00N 36°54' W 127°20'2 1.5 1021.2 14.0
2017-May-15 02:00N 36°55' W 127°19'1 0.8 1021.2 14.0
2017-May-15 01:00N 36°56' W 127°20'0 0.0 1021.0 14.0
2017-May-15 00:00N 36°56' W 127°20'0 0.0 1021.1 14.0
2017-May-14 23:00N 36°56' W 127°20'0 0.5 1021.4 14.0
2017-May-14 22:00N 36°56' W 127°20'0 0.0 1021.7 14.0
2017-May-14 21:00N 36°56' W 127°20'1 0.3 1021.8 14.0
2017-May-14 19:00N 36°56' W 127°20'1 0.8 1021.6 13.8
2017-May-14 18:00N 36°57' W 127°21'0 0.0 1021.3 13.8
2017-May-14 17:00N 36°57' W 127°21'1 0.8 1021.3 13.8
2017-May-14 16:00N 36°58' W 127°22'0 0.0 1021.0 13.8
2017-May-14 15:00N 36°58' W 127°22'1 0.8 1020.6 13.8
2017-May-14 14:00N 36°58' W 127°21'1 1.1 1020.5 13.8
2017-May-14 13:00N 36°59' W 127°22'0 0.5 1020.5 13.8
2017-May-14 12:00N 36°59' W 127°22'2 2.0 1020.6 13.9
2017-May-14 11:00N 37°01' W 127°23'0 0.0 1020.8 14.0
2017-May-14 10:00N 37°01' W 127°23'0 0.0 1021.0 14.0
2017-May-14 06:00N 37°01' W 127°23'0 0.0 1022.7 14.0
2017-May-14 05:00N 37°01' W 127°23'1 1.1 1023.0 14.0
2017-May-14 04:00N 37°01' W 127°24'0 0.0 1023.0 14.1
2017-May-14 03:00N 37°01' W 127°24'1 1.0 1023.1 14.1
2017-May-14 02:00N 37°01' W 127°25'0 0.0 1023.2 14.1
2017-May-14 01:00N 37°01' W 127°25'0 0.5 1023.5 14.1
2017-May-14 00:00N 37°01' W 127°26'0 0.0 1023.9 14.1
2017-May-13 23:00N 37°01' W 127°26'1 0.5 1024.6 14.1
2017-May-13 21:00N 37°01' W 127°25'2 0.5 1025.4 14.0
2017-May-13 18:00N 37°02' W 127°23'1 0.6 1025.7 14.0
2017-May-13 17:00N 37°03' W 127°23'1 0.8 1025.8 14.0
2017-May-13 16:00N 37°04' W 127°24'0 0.5 1025.4 14.1
2017-May-13 15:00N 37°04' W 127°25'1 1.3 1025.2 14.1
2017-May-13 14:00N 37°05' W 127°25'   1024.9 14.1

Dump ship's entire track history